createdAt,value
2023-01-23T00:01:03.461Z,7.57
2023-01-23T00:03:30.959Z,7.65
2023-01-23T00:06:01.759Z,9.18
2023-01-23T00:08:29.436Z,7.93
2023-01-23T00:10:56.963Z,7.57
2023-01-23T00:13:24.418Z,6.10
2023-01-23T00:15:51.999Z,6.25
2023-01-23T00:18:19.387Z,5.72
2023-01-23T00:20:46.708Z,6.97
2023-01-23T00:23:15.118Z,6.15
2023-01-23T00:25:42.497Z,7.07
2023-01-23T00:28:10.335Z,6.70
2023-01-23T00:30:37.815Z,7.03
2023-01-23T00:33:05.234Z,7.32
2023-01-23T00:35:35.175Z,6.95
2023-01-23T00:38:02.535Z,7.20
2023-01-23T00:40:29.988Z,6.78
2023-01-23T00:42:57.310Z,6.25
2023-01-23T00:45:24.631Z,7.07
2023-01-23T00:47:51.927Z,7.43
2023-01-23T00:50:19.488Z,7.13
2023-01-23T00:52:47.007Z,6.60
2023-01-23T00:55:14.361Z,6.72
2023-01-23T00:57:41.976Z,6.45
2023-01-23T01:00:09.781Z,6.45
2023-01-23T01:02:37.293Z,7.07
2023-01-23T01:05:04.767Z,5.95
2023-01-23T01:07:32.229Z,6.97
2023-01-23T01:10:02.317Z,7.05
2023-01-23T01:12:29.702Z,6.55
2023-01-23T01:14:57.003Z,6.28
2023-01-23T01:17:24.300Z,6.20
2023-01-23T01:19:51.646Z,5.60
2023-01-23T01:22:18.986Z,5.72
2023-01-23T01:24:46.302Z,7.30
2023-01-23T01:27:13.597Z,5.68
2023-01-23T01:29:40.903Z,3.33
2023-01-23T01:32:08.492Z,3.25
2023-01-23T01:34:36.014Z,2.78
2023-01-23T01:37:03.396Z,2.50
2023-01-23T01:39:33.416Z,2.33
2023-01-23T01:42:01.006Z,2.85
2023-01-23T01:44:28.351Z,3.40
2023-01-23T01:46:55.783Z,2.90
2023-01-23T01:49:26.404Z,2.90
2023-01-23T01:52:07.785Z,2.90
2023-01-23T01:54:38.088Z,3.03
2023-01-23T01:57:05.327Z,2.60
2023-01-23T01:59:35.613Z,3.10
2023-01-23T02:02:10.459Z,3.55
2023-01-23T02:04:39.833Z,3.28
2023-01-23T02:07:10.292Z,3.47
2023-01-23T02:09:38.264Z,3.67
2023-01-23T02:12:05.699Z,4.03
2023-01-23T02:14:33.089Z,3.85
2023-01-23T02:17:03.054Z,3.65
2023-01-23T02:19:48.734Z,4.28
2023-01-23T02:24:46.183Z,3.75
2023-01-23T02:27:13.622Z,4.43
2023-01-23T02:29:42.346Z,4.10
2023-01-23T02:32:10.459Z,4.72
2023-01-23T02:34:38.973Z,4.40
2023-01-23T02:37:07.495Z,4.13
2023-01-23T02:39:35.180Z,4.07
2023-01-23T02:42:06.019Z,3.90
2023-01-23T02:44:33.339Z,5.03
2023-01-23T02:47:02.272Z,4.53
2023-01-23T02:49:29.924Z,5.00
2023-01-23T02:51:57.907Z,5.22
2023-01-23T02:54:27.792Z,5.25
2023-01-23T02:56:55.190Z,4.90
2023-01-23T02:59:41.104Z,4.65
2023-01-23T03:02:08.475Z,4.97
2023-01-23T03:04:35.858Z,4.80
2023-01-23T03:07:03.511Z,5.25
2023-01-23T03:09:30.802Z,5.43
2023-01-23T03:11:58.208Z,4.13
2023-01-23T03:14:25.804Z,4.90
2023-01-23T03:16:54.239Z,4.47
2023-01-23T03:19:23.650Z,4.38
2023-01-23T03:21:51.630Z,4.53
2023-01-23T03:24:19.349Z,4.43
2023-01-23T03:26:47.649Z,4.60
2023-01-23T03:29:38.208Z,5.47
2023-01-23T03:32:05.666Z,5.53
2023-01-23T03:34:33.472Z,5.47
2023-01-23T03:37:01.494Z,4.85
2023-01-23T03:39:47.342Z,4.85
2023-01-23T03:42:14.722Z,4.82
2023-01-23T03:44:42.159Z,5.78
2023-01-23T03:47:11.862Z,5.68
2023-01-23T03:49:39.226Z,5.43
2023-01-23T03:52:06.786Z,6.15
2023-01-23T03:54:34.179Z,6.90
2023-01-23T03:57:01.542Z,6.10
2023-01-23T03:59:28.897Z,7.75
2023-01-23T04:01:58.197Z,7.18
2023-01-23T04:04:25.512Z,7.53
2023-01-23T04:06:52.985Z,7.45
2023-01-23T04:09:20.449Z,6.70
2023-01-23T04:11:47.721Z,7.78
2023-01-23T04:14:14.989Z,6.20
2023-01-23T04:16:42.512Z,8.13
2023-01-23T04:19:09.922Z,9.07
2023-01-23T04:21:37.181Z,8.00
2023-01-23T04:24:04.626Z,8.52
2023-01-23T04:26:32.009Z,7.93
2023-01-23T04:28:59.269Z,9.52
2023-01-23T04:31:26.744Z,8.27
2023-01-23T04:33:54.052Z,8.73
2023-01-23T04:36:21.461Z,8.82
2023-01-23T04:38:48.844Z,7.93
2023-01-23T04:41:20.395Z,8.45
2023-01-23T04:43:47.815Z,9.27
2023-01-23T04:46:15.461Z,8.95
2023-01-23T04:48:42.950Z,10.68
2023-01-23T04:51:10.376Z,8.32
2023-01-23T04:53:37.789Z,8.68
2023-01-23T04:56:05.500Z,9.38
2023-01-23T04:58:32.988Z,9.07
2023-01-23T05:01:07.172Z,8.95
2023-01-23T05:03:35.440Z,9.18
2023-01-23T05:06:02.840Z,10.25
2023-01-23T05:08:30.220Z,9.13
2023-01-23T05:10:57.467Z,9.23
2023-01-23T05:13:24.820Z,9.20
2023-01-23T05:15:52.198Z,9.93
2023-01-23T05:18:19.636Z,8.70
2023-01-23T05:20:46.915Z,9.52
2023-01-23T05:23:14.281Z,9.25
2023-01-23T05:25:41.674Z,9.00
2023-01-23T05:28:11.534Z,8.88
2023-01-23T05:30:39.146Z,8.38
2023-01-23T05:33:06.500Z,8.70
2023-01-23T05:35:33.895Z,9.25
2023-01-23T05:38:01.577Z,7.97
2023-01-23T05:40:28.890Z,8.48
2023-01-23T05:42:56.171Z,7.75
2023-01-23T05:45:23.740Z,7.32
2023-01-23T05:47:51.193Z,6.15
2023-01-23T05:50:19.924Z,6.70
2023-01-23T05:52:47.520Z,6.80
2023-01-23T05:55:14.998Z,5.53
2023-01-23T05:57:42.550Z,5.32
2023-01-23T06:00:10.211Z,6.20
2023-01-23T06:02:37.612Z,6.03
2023-01-23T06:05:05.072Z,4.63
2023-01-23T06:07:32.425Z,4.78
2023-01-23T06:09:59.802Z,4.55
2023-01-23T06:12:27.280Z,4.95
2023-01-23T06:14:54.638Z,4.53
2023-01-23T06:17:21.912Z,6.00
2023-01-23T06:19:49.485Z,5.18
2023-01-23T06:22:17.013Z,5.03
2023-01-23T06:24:44.350Z,5.20
2023-01-23T06:27:11.669Z,7.68
2023-01-23T06:29:39.045Z,7.53
2023-01-23T06:32:06.615Z,8.82
2023-01-23T06:34:34.144Z,4.47
2023-01-23T06:37:01.581Z,7.60
2023-01-23T06:39:30.411Z,6.55
2023-01-23T06:41:58.210Z,8.05
2023-01-23T06:44:25.563Z,7.97
2023-01-23T06:46:55.875Z,7.30
2023-01-23T06:49:23.188Z,6.70
2023-01-23T06:51:50.461Z,6.90
2023-01-23T06:54:17.868Z,7.75
2023-01-23T06:56:45.329Z,8.68
2023-01-23T06:59:12.684Z,8.07
2023-01-23T07:01:40.201Z,8.52
2023-01-23T07:04:09.137Z,8.63
2023-01-23T07:06:36.677Z,9.93
2023-01-23T07:09:04.304Z,10.00
2023-01-23T07:11:31.659Z,8.68
2023-01-23T07:13:58.955Z,9.75
2023-01-23T07:16:26.329Z,10.98
2023-01-23T07:18:54.319Z,9.77
2023-01-23T07:21:21.709Z,11.18
2023-01-23T07:23:51.163Z,9.88
2023-01-23T07:26:18.472Z,9.30
2023-01-23T07:28:45.825Z,10.10
2023-01-23T07:31:13.968Z,10.27
2023-01-23T07:33:41.364Z,11.25
2023-01-23T07:36:08.970Z,11.18
2023-01-23T07:38:36.401Z,10.57
2023-01-23T07:41:03.816Z,11.93
2023-01-23T07:43:31.183Z,11.85
2023-01-23T07:46:01.749Z,10.52
2023-01-23T07:48:29.582Z,11.55
2023-01-23T07:50:56.990Z,11.10
2023-01-23T07:53:24.354Z,12.52
2023-01-23T07:55:51.666Z,11.85
2023-01-23T07:58:19.119Z,11.50
2023-01-23T08:00:46.449Z,11.30
2023-01-23T08:03:13.871Z,12.20
2023-01-23T08:05:43.704Z,11.93
2023-01-23T08:08:13.905Z,11.82
2023-01-23T08:10:42.091Z,11.05
2023-01-23T08:13:09.557Z,11.98
2023-01-23T08:15:38.886Z,13.05
2023-01-23T08:18:06.228Z,14.13
2023-01-23T08:20:33.643Z,13.70
2023-01-23T08:23:02.455Z,14.90
2023-01-23T08:25:29.954Z,15.32
2023-01-23T08:27:57.368Z,13.80
2023-01-23T08:30:24.748Z,14.00
2023-01-23T08:32:52.119Z,13.25
2023-01-23T08:35:19.430Z,10.80
2023-01-23T08:37:46.711Z,12.65
2023-01-23T08:40:14.203Z,11.45
2023-01-23T08:42:41.461Z,11.73
2023-01-23T08:45:09.176Z,9.93
2023-01-23T08:47:37.156Z,9.35
2023-01-23T08:50:07.523Z,9.73
2023-01-23T08:52:35.507Z,9.88
2023-01-23T08:55:03.051Z,9.07
2023-01-23T08:57:31.317Z,10.35
2023-01-23T08:59:58.744Z,10.15
2023-01-23T09:02:26.062Z,10.75
2023-01-23T09:04:53.445Z,11.13
2023-01-23T09:07:20.789Z,9.95
2023-01-23T09:09:48.096Z,11.77
2023-01-23T09:12:15.520Z,10.82
2023-01-23T09:14:42.879Z,12.25
2023-01-23T09:17:10.243Z,11.75
2023-01-23T09:19:40.289Z,11.18
2023-01-23T09:22:07.683Z,11.57
2023-01-23T09:24:35.160Z,16.83
2023-01-23T09:27:02.507Z,11.13
2023-01-23T09:29:29.910Z,12.85
2023-01-23T09:31:59.181Z,11.95
2023-01-23T09:34:26.535Z,11.52
2023-01-23T09:36:53.876Z,13.18
2023-01-23T09:39:21.261Z,13.68
2023-01-23T09:41:49.448Z,14.10
2023-01-23T09:44:20.973Z,14.63
2023-01-23T09:47:05.293Z,14.07
2023-01-23T09:49:41.493Z,12.75
2023-01-23T09:52:15.530Z,13.18
2023-01-23T09:54:47.291Z,12.57
2023-01-23T09:57:16.620Z,11.98
2023-01-23T09:59:59.805Z,11.50
2023-01-23T10:02:27.580Z,11.07
2023-01-23T10:04:56.303Z,12.63
2023-01-23T10:07:23.651Z,10.98
2023-01-23T10:10:09.345Z,12.57
2023-01-23T10:15:09.359Z,11.85
2023-01-23T10:17:39.779Z,11.07
2023-01-23T10:20:07.135Z,12.70
2023-01-23T10:22:59.071Z,11.63
2023-01-23T10:25:41.347Z,13.23
2023-01-23T10:28:14.536Z,11.13
2023-01-23T10:30:42.851Z,12.68
2023-01-23T10:33:19.865Z,13.18
2023-01-23T10:35:47.878Z,12.25
2023-01-23T10:38:27.511Z,10.68
2023-01-23T10:41:13.700Z,11.25
2023-01-23T10:43:54.042Z,11.43
2023-01-23T10:46:30.135Z,12.23
